createdAt,value
2022-12-18T00:02:15.944Z,-10.31
2022-12-18T00:07:12.325Z,-10.27
2022-12-18T00:17:12.558Z,-10.34
2022-12-18T00:22:08.934Z,-10.47
2022-12-18T00:27:05.304Z,-10.66
2022-12-18T00:32:01.737Z,-10.50
2022-12-18T00:36:58.124Z,-10.67
2022-12-18T00:42:12.950Z,-10.57
2022-12-18T00:47:09.644Z,-10.68
2022-12-18T00:52:06.100Z,-10.50
2022-12-18T00:57:02.462Z,-10.60
2022-12-18T01:01:58.975Z,-10.51
2022-12-18T01:06:55.381Z,-10.28
2022-12-18T01:11:51.771Z,-10.42
2022-12-18T01:16:48.160Z,-10.48
2022-12-18T01:21:44.581Z,-10.37
2022-12-18T01:26:41.026Z,-10.45
2022-12-18T01:31:37.462Z,-10.14
2022-12-18T01:36:36.176Z,-9.87
2022-12-18T01:41:53.173Z,-9.81
2022-12-18T01:46:49.595Z,-9.83
2022-12-18T01:51:45.984Z,-9.79
2022-12-18T01:56:42.370Z,-9.93
2022-12-18T02:01:39.040Z,-10.03
2022-12-18T02:06:42.275Z,-10.10
2022-12-18T02:12:00.017Z,-10.03
2022-12-18T02:16:56.458Z,-9.87
2022-12-18T02:22:00.352Z,-9.89
2022-12-18T02:27:03.997Z,-9.99
2022-12-18T02:32:01.114Z,-10.09
2022-12-18T02:37:00.088Z,-10.08
2022-12-18T02:41:58.457Z,-10.19
2022-12-18T02:46:55.628Z,-10.01
2022-12-18T02:51:56.332Z,-10.08
2022-12-18T02:56:56.976Z,-10.01
2022-12-18T03:02:02.598Z,-9.91
2022-12-18T03:07:04.147Z,-10.01
2022-12-18T03:12:25.720Z,-9.94
2022-12-18T03:17:26.058Z,-10.01
2022-12-18T03:22:25.804Z,-9.83
2022-12-18T03:27:24.747Z,-9.76
2022-12-18T03:32:29.874Z,-9.71
2022-12-18T03:37:26.324Z,-9.87
2022-12-18T03:42:50.742Z,-9.78
2022-12-18T03:48:01.720Z,-9.63
2022-12-18T03:53:03.182Z,-9.70
2022-12-18T03:58:03.085Z,-9.93
2022-12-18T04:03:02.185Z,-10.13
2022-12-18T04:07:58.874Z,-10.20
2022-12-18T04:12:58.582Z,-10.01
2022-12-18T04:17:54.961Z,-10.02
2022-12-18T04:22:51.317Z,-10.13
2022-12-18T04:27:47.652Z,-10.29
2022-12-18T04:32:47.731Z,-10.31
2022-12-18T04:37:46.937Z,-10.32
2022-12-18T04:42:43.355Z,-10.14
2022-12-18T04:47:39.859Z,-10.11
2022-12-18T04:52:37.112Z,-10.21
2022-12-18T04:57:33.496Z,-10.16
2022-12-18T05:02:29.926Z,-10.12
2022-12-18T05:07:26.397Z,-10.06
2022-12-18T05:12:22.861Z,-9.99
2022-12-18T05:17:19.326Z,-9.72
2022-12-18T05:22:15.693Z,-9.53
2022-12-18T05:27:12.369Z,-9.17
2022-12-18T05:32:08.737Z,-9.05
2022-12-18T05:37:05.233Z,-8.95
2022-12-18T05:42:01.625Z,-8.80
2022-12-18T05:46:58.034Z,-8.84
2022-12-18T05:51:54.463Z,-8.77
2022-12-18T05:56:50.941Z,-8.73
2022-12-18T06:01:47.720Z,-8.57
2022-12-18T06:06:44.189Z,-8.29
2022-12-18T06:11:40.786Z,-8.20
2022-12-18T06:16:37.295Z,-8.01
2022-12-18T06:21:33.853Z,-7.91
2022-12-18T06:26:31.043Z,-7.88
2022-12-18T06:31:27.581Z,-8.03
2022-12-18T06:36:24.221Z,-8.07
2022-12-18T06:41:22.065Z,-7.94
2022-12-18T06:46:18.750Z,-7.77
2022-12-18T06:51:18.255Z,-7.71
2022-12-18T06:56:15.063Z,-7.63
2022-12-18T07:01:12.602Z,-7.64
2022-12-18T07:06:17.664Z,-7.40
2022-12-18T07:11:14.841Z,-7.28
2022-12-18T07:16:20.873Z,-7.12
2022-12-18T07:21:20.517Z,-7.34
2022-12-18T07:26:19.617Z,-7.45
2022-12-18T07:31:18.918Z,-7.44
2022-12-18T07:36:15.535Z,-7.34
2022-12-18T07:41:13.993Z,-7.23
2022-12-18T07:46:13.173Z,-6.99
2022-12-18T07:51:10.414Z,-6.97
2022-12-18T08:01:27.115Z,-6.50
2022-12-18T08:06:24.877Z,-6.44
2022-12-18T08:11:21.796Z,-6.24
2022-12-18T08:16:19.312Z,-5.91
2022-12-18T08:21:20.433Z,-5.56
2022-12-18T08:26:18.674Z,-5.38
2022-12-18T08:31:15.688Z,-5.15
2022-12-18T08:36:12.426Z,-4.94
2022-12-18T08:41:11.559Z,-4.80
2022-12-18T08:46:08.030Z,-4.64
2022-12-18T08:51:04.599Z,-4.46
2022-12-18T08:56:00.902Z,-4.30
2022-12-18T09:01:05.111Z,-4.13
2022-12-18T09:06:01.717Z,-3.95
2022-12-18T09:10:58.178Z,-3.76
2022-12-18T09:15:56.237Z,-3.55
2022-12-18T09:20:53.753Z,-3.50
2022-12-18T09:25:50.140Z,-3.44
2022-12-18T09:30:49.797Z,-3.46
2022-12-18T09:35:47.552Z,-3.50
2022-12-18T09:40:48.284Z,-3.45
2022-12-18T09:45:54.178Z,-3.42
2022-12-18T09:50:53.798Z,-3.39
2022-12-18T09:55:53.087Z,-3.23
2022-12-18T10:00:52.806Z,-3.10
2022-12-18T10:05:54.991Z,-2.94
2022-12-18T10:10:55.020Z,-2.58
2022-12-18T10:15:57.165Z,-2.35
2022-12-18T10:20:59.778Z,-2.28
2022-12-18T10:26:08.348Z,-2.22
2022-12-18T10:31:17.837Z,-2.12
2022-12-18T10:36:16.008Z,-1.98
2022-12-18T10:41:18.235Z,-1.92
2022-12-18T10:46:21.247Z,-1.79
2022-12-18T10:51:23.789Z,-1.74
2022-12-18T10:56:21.354Z,-1.66
2022-12-18T11:01:21.085Z,-1.54
2022-12-18T11:06:22.201Z,-1.51
2022-12-18T11:11:23.305Z,-1.52
2022-12-18T11:16:21.358Z,-1.42
2022-12-18T11:21:17.939Z,-1.41
2022-12-18T11:26:14.459Z,-1.38
2022-12-18T11:31:22.047Z,-1.29
2022-12-18T11:36:20.482Z,-1.18
2022-12-18T11:41:49.591Z,-1.16
2022-12-18T11:46:57.897Z,-0.99
2022-12-18T11:52:24.507Z,-0.87
2022-12-18T11:57:29.545Z,-0.81
2022-12-18T12:03:08.132Z,-0.72
2022-12-18T12:08:36.710Z,-0.80
2022-12-18T12:13:48.591Z,-0.75
2022-12-18T12:18:50.994Z,-0.74
2022-12-18T12:24:10.756Z,-0.70
2022-12-18T12:29:37.904Z,-0.70
2022-12-18T12:34:44.152Z,-0.69
2022-12-18T12:39:44.023Z,-0.69
2022-12-18T12:44:52.751Z,-0.73
2022-12-18T12:49:52.740Z,-0.67
2022-12-18T12:54:50.659Z,-0.70
2022-12-18T12:59:51.601Z,-0.72
2022-12-18T13:04:59.648Z,-0.72
2022-12-18T13:10:27.045Z,-0.70
2022-12-18T13:15:40.793Z,-0.72
2022-12-18T13:20:38.440Z,-0.71
2022-12-18T13:25:37.450Z,-0.71
2022-12-18T13:30:33.695Z,-0.70
2022-12-18T13:35:41.066Z,-0.70
2022-12-18T13:40:40.250Z,-0.63
2022-12-18T13:45:39.890Z,-0.62
2022-12-18T13:50:37.584Z,-0.64
2022-12-18T13:55:34.541Z,-0.64
2022-12-18T14:00:31.477Z,-0.63
2022-12-18T14:05:30.799Z,-0.65
2022-12-18T14:10:45.613Z,-0.67
2022-12-18T14:15:47.307Z,-0.67
2022-12-18T14:20:50.765Z,-0.66
2022-12-18T14:25:49.167Z,-0.66
2022-12-18T14:30:47.157Z,-0.69
2022-12-18T14:36:04.069Z,-0.72
2022-12-18T14:41:02.911Z,-0.77
2022-12-18T14:46:00.204Z,-0.80
2022-12-18T14:51:00.820Z,-0.79
2022-12-18T14:55:57.194Z,-0.88
2022-12-18T15:00:53.580Z,-0.92
2022-12-18T15:05:51.009Z,-0.98
2022-12-18T15:10:48.506Z,-1.03
2022-12-18T15:15:46.191Z,-1.03
2022-12-18T15:20:54.049Z,-1.09
2022-12-18T15:25:57.057Z,-1.13
2022-12-18T15:31:20.036Z,-1.19
2022-12-18T15:36:18.080Z,-1.20
2022-12-18T15:41:24.766Z,-1.22
2022-12-18T15:46:25.897Z,-1.29
2022-12-18T15:51:27.707Z,-1.31
2022-12-18T15:56:42.817Z,-1.35
2022-12-18T16:01:42.690Z,-1.35
2022-12-18T16:07:05.402Z,-1.40
2022-12-18T16:11:56.033Z,-1.39
2022-12-18T16:16:55.302Z,-1.42
2022-12-18T16:21:53.410Z,-1.46
2022-12-18T16:26:52.198Z,-1.42
2022-12-18T16:31:48.528Z,-1.39
2022-12-18T16:36:45.184Z,-1.37
2022-12-18T16:41:41.687Z,-1.37
2022-12-18T16:46:39.031Z,-1.38
2022-12-18T16:51:35.740Z,-1.39
2022-12-18T16:56:32.175Z,-1.37
2022-12-18T17:01:30.338Z,-1.34
2022-12-18T17:06:29.002Z,-1.34
2022-12-18T17:11:26.216Z,-1.32
2022-12-18T17:16:24.645Z,-1.33
2022-12-18T17:21:21.009Z,-1.31
2022-12-18T17:26:17.428Z,-1.31
2022-12-18T17:31:19.671Z,-1.33
2022-12-18T17:36:16.989Z,-1.28
2022-12-18T17:41:13.408Z,-1.23
2022-12-18T17:46:09.756Z,-1.24
2022-12-18T17:51:08.212Z,-1.26
2022-12-18T17:56:06.337Z,-1.32
2022-12-18T18:01:05.879Z,-1.35
2022-12-18T18:06:02.439Z,-1.39
2022-12-18T18:11:21.838Z,-1.48
2022-12-18T18:16:18.298Z,-1.52
2022-12-18T18:21:14.676Z,-1.54
2022-12-18T18:26:12.019Z,-1.53
2022-12-18T18:31:10.014Z,-1.59
2022-12-18T18:36:09.781Z,-1.63
2022-12-18T18:41:06.707Z,-1.73
2022-12-18T18:46:05.056Z,-1.76
2022-12-18T18:51:04.899Z,-1.79
2022-12-18T18:56:34.874Z,-1.85
2022-12-18T19:01:19.396Z,-1.90
2022-12-18T19:06:27.373Z,-1.94
2022-12-18T19:11:44.355Z,-1.96
2022-12-18T19:16:41.532Z,-1.99
2022-12-18T19:21:38.274Z,-1.96
2022-12-18T19:26:34.647Z,-2.04
2022-12-18T19:31:35.589Z,-2.07
2022-12-18T19:36:33.644Z,-2.13
2022-12-18T19:41:32.098Z,-2.12
2022-12-18T19:46:30.334Z,-2.19
2022-12-18T19:51:30.374Z,-2.20
2022-12-18T19:56:30.041Z,-2.24
2022-12-18T20:01:28.833Z,-2.22
2022-12-18T20:06:32.976Z,-2.25
2022-12-18T20:11:30.843Z,-2.27
2022-12-18T20:16:27.397Z,-2.27
2022-12-18T20:21:25.143Z,-2.28
2022-12-18T20:26:22.979Z,-2.32
2022-12-18T20:31:19.549Z,-2.36
2022-12-18T20:36:21.201Z,-2.32
2022-12-18T20:41:21.131Z,-2.36
2022-12-18T20:46:18.464Z,-2.40
2022-12-18T20:51:18.904Z,-2.35
2022-12-18T20:56:21.819Z,-2.40
2022-12-18T21:01:21.194Z,-2.41
2022-12-18T21:06:20.331Z,-2.38
2022-12-18T21:11:43.708Z,-2.36
2022-12-18T21:16:40.461Z,-2.38
2022-12-18T21:21:38.842Z,-2.36
2022-12-18T21:26:40.454Z,-2.26
2022-12-18T21:31:42.055Z,-2.20
2022-12-18T21:36:38.468Z,-2.19
2022-12-18T21:41:53.707Z,-2.08
2022-12-18T21:46:56.962Z,-2.10
2022-12-18T21:51:59.395Z,-2.12
2022-12-18T21:56:56.904Z,-2.09
2022-12-18T22:01:55.251Z,-2.03
2022-12-18T22:06:52.267Z,-1.96
2022-12-18T22:11:49.735Z,-1.99
2022-12-18T22:16:46.447Z,-1.98
2022-12-18T22:21:46.544Z,-1.97
2022-12-18T22:26:43.592Z,-1.95
2022-12-18T22:31:40.637Z,-1.83
2022-12-18T22:36:40.044Z,-1.81
2022-12-18T22:41:36.641Z,-1.79
2022-12-18T22:46:37.581Z,-1.75
2022-12-18T22:51:34.080Z,-1.74
2022-12-18T22:56:30.559Z,-1.70
2022-12-18T23:01:28.860Z,-1.68
2022-12-18T23:06:27.542Z,-1.69
2022-12-18T23:11:25.794Z,-1.63
2022-12-18T23:16:22.425Z,-1.62
2022-12-18T23:21:19.968Z,-1.60
2022-12-18T23:26:20.382Z,-1.61
2022-12-18T23:31:20.626Z,-1.53
2022-12-18T23:36:17.742Z,-1.52
2022-12-18T23:41:15.856Z,-1.48
2022-12-18T23:46:23.337Z,-1.43
2022-12-18T23:51:25.733Z,-1.39
2022-12-18T23:56:22.727Z,-1.39
